createdAt,value
2022-10-06T00:01:27.048Z,11.45
2022-10-06T00:03:54.807Z,12.37
2022-10-06T00:06:22.148Z,12.93
2022-10-06T00:08:49.580Z,14.38
2022-10-06T00:11:17.563Z,12.75
2022-10-06T00:13:45.221Z,15.50
2022-10-06T00:16:21.706Z,16.65
2022-10-06T00:18:49.865Z,12.68
2022-10-06T00:21:17.696Z,16.80
2022-10-06T00:23:45.422Z,12.57
2022-10-06T00:26:17.322Z,13.57
2022-10-06T00:28:48.741Z,10.75
2022-10-06T00:31:19.441Z,11.77
2022-10-06T00:33:46.968Z,8.25
2022-10-06T00:36:14.474Z,8.75
2022-10-06T00:38:42.275Z,9.80
2022-10-06T00:41:15.844Z,11.77
2022-10-06T00:43:48.026Z,10.18
2022-10-06T00:46:21.153Z,12.82
2022-10-06T00:48:52.728Z,10.15
2022-10-06T00:51:21.038Z,10.10
2022-10-06T00:53:49.227Z,10.88
2022-10-06T00:56:16.817Z,12.02
2022-10-06T00:58:44.170Z,11.18
2022-10-06T01:01:12.606Z,10.38
2022-10-06T01:03:44.302Z,9.27
2022-10-06T01:06:12.147Z,9.13
2022-10-06T01:08:39.726Z,8.85
2022-10-06T01:11:13.321Z,10.13
2022-10-06T01:13:44.572Z,10.10
2022-10-06T01:16:17.558Z,9.95
2022-10-06T01:18:47.283Z,9.82
2022-10-06T01:21:31.509Z,10.07
2022-10-06T01:24:04.552Z,11.07
2022-10-06T01:26:34.063Z,10.75
2022-10-06T01:29:01.902Z,14.00
2022-10-06T01:31:29.874Z,13.43
2022-10-06T01:33:57.917Z,12.93
2022-10-06T01:36:25.596Z,12.13
2022-10-06T01:38:53.034Z,13.05
2022-10-06T01:41:21.755Z,14.25
2022-10-06T01:43:49.628Z,13.40
2022-10-06T01:46:17.123Z,13.77
2022-10-06T01:48:44.518Z,11.93
2022-10-06T01:51:18.879Z,10.73
2022-10-06T01:53:46.358Z,10.45
2022-10-06T01:56:14.081Z,11.35
2022-10-06T01:58:41.665Z,13.50
2022-10-06T02:01:10.382Z,9.57
2022-10-06T02:03:39.224Z,10.82
2022-10-06T02:06:07.934Z,11.38
2022-10-06T02:08:36.172Z,11.20
2022-10-06T02:11:06.431Z,13.05
2022-10-06T02:13:33.826Z,12.68
2022-10-06T02:16:01.387Z,11.95
2022-10-06T02:18:29.464Z,10.10
2022-10-06T02:20:57.406Z,14.90
2022-10-06T02:23:24.739Z,15.55
2022-10-06T02:26:03.653Z,10.88
2022-10-06T02:28:32.455Z,13.68
2022-10-06T02:31:05.304Z,11.48
2022-10-06T02:33:33.401Z,10.82
2022-10-06T02:36:01.310Z,11.95
2022-10-06T02:38:30.438Z,13.10
2022-10-06T02:40:59.728Z,13.50
2022-10-06T02:43:31.912Z,12.60
2022-10-06T02:46:19.395Z,11.77
2022-10-06T02:48:46.990Z,11.43
2022-10-06T02:51:17.213Z,11.88
2022-10-06T02:53:48.241Z,12.37
2022-10-06T02:56:20.115Z,12.23
2022-10-06T02:58:48.121Z,11.15
2022-10-06T03:01:20.881Z,13.85
2022-10-06T03:03:48.513Z,15.50
2022-10-06T03:06:22.745Z,12.07
2022-10-06T03:09:02.065Z,12.90
2022-10-06T03:11:35.139Z,13.27
2022-10-06T03:14:03.872Z,12.93
2022-10-06T03:16:38.814Z,12.73
2022-10-06T03:19:07.391Z,13.15
2022-10-06T03:21:37.608Z,11.90
2022-10-06T03:24:05.808Z,9.93
2022-10-06T03:26:36.211Z,11.75
2022-10-06T03:29:09.133Z,11.27
2022-10-06T03:31:40.174Z,11.68
2022-10-06T03:34:08.173Z,11.18
2022-10-06T03:36:36.475Z,10.88
2022-10-06T03:39:05.464Z,13.10
2022-10-06T03:41:35.266Z,14.40
2022-10-06T03:44:03.194Z,15.20
2022-10-06T03:46:34.037Z,11.23
2022-10-06T03:49:02.100Z,14.43
2022-10-06T03:51:32.447Z,10.70
2022-10-06T03:54:00.275Z,13.82
2022-10-06T03:56:28.489Z,15.32
2022-10-06T03:59:03.825Z,11.80
2022-10-06T04:01:36.622Z,15.15
2022-10-06T04:04:05.380Z,12.55
2022-10-06T04:06:36.418Z,15.52
2022-10-06T04:09:08.492Z,16.42
2022-10-06T04:11:40.173Z,14.85
2022-10-06T04:14:10.566Z,20.35
2022-10-06T04:16:43.754Z,14.87
2022-10-06T04:19:13.300Z,17.98
2022-10-06T04:21:43.441Z,14.87
2022-10-06T04:24:12.097Z,15.48
2022-10-06T04:26:42.084Z,15.85
2022-10-06T04:29:09.465Z,17.15
2022-10-06T04:31:39.296Z,17.08
2022-10-06T04:34:09.045Z,14.18
2022-10-06T04:36:41.081Z,12.52
2022-10-06T04:39:11.198Z,15.95
2022-10-06T04:41:41.667Z,13.38
2022-10-06T04:44:10.339Z,11.85
2022-10-06T04:46:43.116Z,17.73
2022-10-06T04:49:18.884Z,14.32
2022-10-06T04:51:49.703Z,12.35
2022-10-06T04:54:19.091Z,12.85
2022-10-06T04:56:46.913Z,16.98
2022-10-06T04:59:15.285Z,12.95
2022-10-06T05:01:43.251Z,13.68
2022-10-06T05:04:10.882Z,15.82
2022-10-06T05:06:41.309Z,15.30
2022-10-06T05:09:14.713Z,14.27
2022-10-06T05:11:42.917Z,13.13
2022-10-06T05:14:11.844Z,15.90
2022-10-06T05:16:39.670Z,18.55
2022-10-06T05:19:08.253Z,21.45
2022-10-06T05:21:37.634Z,18.52
2022-10-06T05:24:07.095Z,16.85
2022-10-06T05:26:35.887Z,16.05
2022-10-06T05:29:04.093Z,20.45
2022-10-06T05:31:38.979Z,16.55
2022-10-06T05:34:07.307Z,15.07
2022-10-06T05:36:35.215Z,17.02
2022-10-06T05:39:03.858Z,16.58
2022-10-06T05:41:33.875Z,17.37
2022-10-06T05:44:02.064Z,15.40
2022-10-06T05:46:32.315Z,14.68
2022-10-06T05:49:06.167Z,15.75
2022-10-06T05:51:35.810Z,16.08
2022-10-06T05:54:04.386Z,15.70
2022-10-06T05:56:38.444Z,12.80
2022-10-06T05:59:07.060Z,13.90
2022-10-06T06:01:40.159Z,13.65
2022-10-06T06:04:10.397Z,13.80
2022-10-06T06:06:40.706Z,14.43
2022-10-06T06:09:18.445Z,14.50
2022-10-06T06:11:48.670Z,14.07
2022-10-06T06:14:19.239Z,13.65
2022-10-06T06:16:47.701Z,14.32
2022-10-06T06:19:15.407Z,12.60
2022-10-06T06:21:43.584Z,11.60
2022-10-06T06:24:11.728Z,11.75
2022-10-06T06:26:39.271Z,10.98
2022-10-06T06:29:07.055Z,14.77
2022-10-06T06:31:38.175Z,12.50
2022-10-06T06:34:07.076Z,11.55
2022-10-06T06:36:41.103Z,12.13
2022-10-06T06:39:13.937Z,15.52
2022-10-06T06:41:47.088Z,12.30
2022-10-06T06:44:14.817Z,12.07
2022-10-06T06:46:44.880Z,12.98
2022-10-06T06:49:13.143Z,17.33
2022-10-06T06:51:43.706Z,13.73
2022-10-06T06:54:13.032Z,11.73
2022-10-06T06:56:41.371Z,12.82
2022-10-06T06:59:13.266Z,11.02
2022-10-06T07:01:45.566Z,10.00
2022-10-06T07:04:15.566Z,14.48
2022-10-06T07:06:56.977Z,13.38
2022-10-06T07:09:26.184Z,12.65
2022-10-06T07:11:55.168Z,14.02
2022-10-06T07:14:24.292Z,14.82
2022-10-06T07:17:10.323Z,13.90
2022-10-06T07:19:47.563Z,14.70
2022-10-06T07:22:35.666Z,17.75
2022-10-06T07:25:15.018Z,15.07
2022-10-06T07:27:51.126Z,17.65
2022-10-06T07:30:24.249Z,17.05
2022-10-06T07:32:52.923Z,17.92
2022-10-06T07:35:22.665Z,16.77
2022-10-06T07:37:53.228Z,18.27
2022-10-06T07:40:22.342Z,17.12
2022-10-06T07:42:52.279Z,18.48
2022-10-06T07:45:41.801Z,20.80
2022-10-06T07:48:15.711Z,16.98
2022-10-06T07:50:45.700Z,18.65
2022-10-06T07:53:13.924Z,19.92
2022-10-06T07:55:46.323Z,16.83
2022-10-06T07:58:15.704Z,21.23
2022-10-06T08:00:43.510Z,22.02
2022-10-06T08:03:12.483Z,28.65
2022-10-06T08:05:40.022Z,23.05
2022-10-06T08:08:07.542Z,19.23
2022-10-06T08:10:35.245Z,18.37
2022-10-06T08:13:06.586Z,20.70
2022-10-06T08:15:34.730Z,16.90
2022-10-06T08:18:08.745Z,14.48
2022-10-06T08:20:40.746Z,16.42
2022-10-06T08:23:12.130Z,16.48
2022-10-06T08:25:43.292Z,15.93
2022-10-06T08:28:11.404Z,18.60
2022-10-06T08:30:39.464Z,15.85
2022-10-06T08:33:06.841Z,15.55
2022-10-06T08:35:36.176Z,17.20
2022-10-06T08:38:03.623Z,14.38
2022-10-06T08:40:31.831Z,22.10
2022-10-06T08:43:02.383Z,15.27
2022-10-06T08:45:38.750Z,14.48
2022-10-06T08:48:13.958Z,15.63
2022-10-06T08:51:19.666Z,15.88
2022-10-06T08:54:17.116Z,15.90
2022-10-06T08:57:05.327Z,12.30
2022-10-06T08:59:34.974Z,13.50
2022-10-06T09:02:06.937Z,17.08
2022-10-06T09:04:34.763Z,13.77
2022-10-06T09:07:10.505Z,17.25
2022-10-06T09:10:00.629Z,16.80
2022-10-06T09:12:46.736Z,13.18
2022-10-06T09:15:33.889Z,12.73
2022-10-06T09:19:06.753Z,15.32
2022-10-06T09:21:51.799Z,13.02
2022-10-06T09:24:33.679Z,13.68
2022-10-06T09:27:20.675Z,13.35
2022-10-06T09:32:59.384Z,13.98
2022-10-06T09:35:29.543Z,12.55
2022-10-06T09:38:08.643Z,12.18
2022-10-06T09:40:49.148Z,21.65
2022-10-06T09:43:27.744Z,13.82
2022-10-06T09:45:56.618Z,7.28
2022-10-06T09:48:26.365Z,8.43
2022-10-06T09:51:17.314Z,7.90
2022-10-06T09:54:06.775Z,10.75
2022-10-06T09:56:36.301Z,10.10
2022-10-06T09:59:03.949Z,9.13
2022-10-06T10:01:32.278Z,8.73
2022-10-06T10:04:20.182Z,7.15
2022-10-06T10:06:48.860Z,7.00
2022-10-06T10:09:21.818Z,8.07
2022-10-06T10:12:27.838Z,6.63
2022-10-06T10:14:58.919Z,7.62
2022-10-06T10:17:29.193Z,7.37
2022-10-06T10:19:57.140Z,5.35
2022-10-06T10:22:33.376Z,5.37
2022-10-06T10:25:13.919Z,5.70
2022-10-06T10:28:17.614Z,6.12
2022-10-06T10:31:23.289Z,6.32
2022-10-06T10:34:23.080Z,6.87
2022-10-06T10:37:02.847Z,6.60
2022-10-06T10:39:35.158Z,6.53
2022-10-06T10:42:07.435Z,4.97
2022-10-06T10:44:43.516Z,5.62
2022-10-06T10:47:28.644Z,6.97
2022-10-06T10:50:04.477Z,6.65
2022-10-06T10:52:38.161Z,6.10
2022-10-06T10:55:19.768Z,5.37
2022-10-06T10:57:48.978Z,6.18
2022-10-06T11:00:23.007Z,6.03
2022-10-06T11:02:53.710Z,7.03
2022-10-06T11:05:33.844Z,4.78
2022-10-06T11:08:39.091Z,5.93
2022-10-06T11:11:24.830Z,4.53
2022-10-06T11:13:54.624Z,4.10
2022-10-06T11:16:29.691Z,9.10
2022-10-06T11:19:19.480Z,8.40
2022-10-06T11:22:02.149Z,4.80
2022-10-06T11:25:00.049Z,4.82
2022-10-06T11:27:30.591Z,4.90
2022-10-06T11:30:29.964Z,5.78
2022-10-06T11:33:21.019Z,3.58
2022-10-06T11:35:48.917Z,4.87
2022-10-06T11:38:19.361Z,4.97
2022-10-06T11:41:16.098Z,16.95
2022-10-06T11:44:06.920Z,5.47
2022-10-06T11:46:49.859Z,4.60
2022-10-06T11:49:29.937Z,6.87
2022-10-06T11:52:17.415Z,5.12
2022-10-06T11:54:47.831Z,4.93
2022-10-06T11:57:29.658Z,5.50
2022-10-06T12:00:04.250Z,6.32
2022-10-06T12:02:39.888Z,6.50
2022-10-06T12:05:35.701Z,5.70
2022-10-06T12:07:58.150Z,5.95
2022-10-06T12:10:28.876Z,6.37
2022-10-06T12:14:10.346Z,7.47
2022-10-06T12:19:23.301Z,5.80
2022-10-06T12:22:01.344Z,6.65
2022-10-06T12:25:04.109Z,8.30
2022-10-06T12:27:53.635Z,6.30
2022-10-06T12:30:24.208Z,7.20
2022-10-06T12:32:54.747Z,5.53
2022-10-06T12:35:29.999Z,7.55
2022-10-06T12:38:04.647Z,6.90
2022-10-06T12:40:55.540Z,7.78
2022-10-06T12:43:23.397Z,7.32
2022-10-06T12:46:08.177Z,6.53
2022-10-06T12:49:07.130Z,4.90
2022-10-06T12:51:38.813Z,6.43
2022-10-06T12:54:19.596Z,5.75
2022-10-06T12:57:02.052Z,6.30
2022-10-06T12:59:35.207Z,7.32
2022-10-06T13:02:05.513Z,8.32
2022-10-06T13:04:42.670Z,7.57
2022-10-06T13:07:11.673Z,8.02
2022-10-06T13:09:40.939Z,5.82
2022-10-06T13:12:31.997Z,5.87
2022-10-06T13:15:35.223Z,6.03
2022-10-06T13:18:19.682Z,8.65
2022-10-06T13:23:26.960Z,6.75
2022-10-06T13:26:06.067Z,5.65
2022-10-06T13:28:34.390Z,6.57
2022-10-06T13:31:11.887Z,5.90
2022-10-06T13:33:40.534Z,5.07
2022-10-06T13:36:09.596Z,4.97
2022-10-06T13:38:37.521Z,6.43
2022-10-06T13:41:06.253Z,7.15
2022-10-06T13:43:39.856Z,4.93
2022-10-06T13:46:13.489Z,7.17
2022-10-06T13:49:03.564Z,12.32
2022-10-06T13:51:32.402Z,7.12
2022-10-06T13:54:03.450Z,6.53
2022-10-06T13:56:40.513Z,6.47
2022-10-06T13:59:33.331Z,5.90
2022-10-06T14:02:19.450Z,5.80
2022-10-06T14:05:36.642Z,4.45
2022-10-06T14:08:16.629Z,5.37
2022-10-06T14:10:48.355Z,7.93
2022-10-06T14:13:28.640Z,4.18
2022-10-06T14:16:01.066Z,6.95
2022-10-06T14:18:39.329Z,3.83
2022-10-06T14:21:17.979Z,7.30
2022-10-06T14:23:52.738Z,5.72
2022-10-06T14:26:28.739Z,4.12
2022-10-06T14:28:57.358Z,4.80
2022-10-06T14:31:27.288Z,7.80
2022-10-06T14:33:56.318Z,11.32
2022-10-06T14:36:28.639Z,8.40
2022-10-06T14:38:57.992Z,6.40
2022-10-06T14:41:27.780Z,7.50
2022-10-06T14:44:01.708Z,4.72
2022-10-06T14:46:30.221Z,6.65
2022-10-06T14:48:58.492Z,7.47
2022-10-06T14:51:27.377Z,9.20
2022-10-06T14:53:56.888Z,5.85
2022-10-06T14:56:26.049Z,8.73
2022-10-06T14:58:53.591Z,6.82
2022-10-06T15:01:25.098Z,7.22
2022-10-06T15:03:56.797Z,9.95
2022-10-06T15:06:43.311Z,8.48
2022-10-06T15:09:11.319Z,6.95
2022-10-06T15:11:39.707Z,8.35
2022-10-06T15:14:08.731Z,7.32
2022-10-06T15:16:40.490Z,8.85
2022-10-06T15:19:09.156Z,9.40
2022-10-06T15:21:39.124Z,9.88
2022-10-06T15:24:08.250Z,7.35
2022-10-06T15:26:54.613Z,8.65
2022-10-06T15:29:22.218Z,7.87
2022-10-06T15:31:52.974Z,6.93
2022-10-06T15:34:23.652Z,7.40
2022-10-06T15:36:52.340Z,8.23
2022-10-06T15:39:21.965Z,8.07
2022-10-06T15:41:49.776Z,7.70
2022-10-06T15:44:19.603Z,7.43
2022-10-06T15:46:49.703Z,9.30
2022-10-06T15:49:22.185Z,6.30
2022-10-06T15:52:02.794Z,8.90
2022-10-06T15:54:40.937Z,9.82
2022-10-06T15:57:13.861Z,9.15
2022-10-06T15:59:44.463Z,9.70
2022-10-06T16:02:16.978Z,8.07
2022-10-06T16:04:56.477Z,8.30
2022-10-06T16:07:24.067Z,11.05
2022-10-06T16:09:52.081Z,9.73
2022-10-06T16:12:21.877Z,12.27
2022-10-06T16:14:49.396Z,9.05
2022-10-06T16:17:17.505Z,9.98
2022-10-06T16:19:45.264Z,7.80
2022-10-06T16:22:14.734Z,13.20
2022-10-06T16:24:42.640Z,11.15
2022-10-06T16:27:14.249Z,10.70
2022-10-06T16:29:41.887Z,8.07
2022-10-06T16:32:09.691Z,9.30
2022-10-06T16:34:37.088Z,8.77
2022-10-06T16:37:04.731Z,11.27
2022-10-06T16:39:32.280Z,8.70
2022-10-06T16:41:59.637Z,9.05
2022-10-06T16:44:27.251Z,9.95
2022-10-06T16:46:54.945Z,8.90
2022-10-06T16:49:24.409Z,11.77
2022-10-06T16:51:52.180Z,9.18
2022-10-06T16:54:19.642Z,10.90
2022-10-06T16:56:48.914Z,20.50
2022-10-06T16:59:23.100Z,18.33
2022-10-06T17:01:50.696Z,17.30
2022-10-06T17:04:20.762Z,14.10
2022-10-06T17:06:53.159Z,15.98
2022-10-06T17:09:25.876Z,14.35
2022-10-06T17:11:55.471Z,14.87
2022-10-06T17:14:23.848Z,15.80
2022-10-06T17:16:52.942Z,11.95
2022-10-06T17:19:22.097Z,13.38
2022-10-06T17:21:55.593Z,12.93
2022-10-06T17:24:28.420Z,12.48
2022-10-06T17:26:57.319Z,11.12
2022-10-06T17:29:26.062Z,12.57
2022-10-06T17:31:59.651Z,11.07
2022-10-06T17:34:32.415Z,10.68
2022-10-06T17:37:01.746Z,11.93
2022-10-06T17:39:30.412Z,12.02
2022-10-06T17:41:58.113Z,12.05
2022-10-06T17:44:27.526Z,10.48
2022-10-06T17:46:57.311Z,11.18
2022-10-06T17:49:25.708Z,10.35
2022-10-06T17:51:54.503Z,12.63
2022-10-06T17:54:24.626Z,13.48
2022-10-06T17:56:54.925Z,18.77
2022-10-06T17:59:25.183Z,18.40
2022-10-06T18:01:56.373Z,33.38
2022-10-06T18:04:24.714Z,30.95
2022-10-06T18:06:54.261Z,21.70
2022-10-06T18:09:22.400Z,19.17
2022-10-06T18:11:54.970Z,19.58
2022-10-06T18:14:24.688Z,17.83
2022-10-06T18:16:56.626Z,15.30
2022-10-06T18:19:30.161Z,14.55
2022-10-06T18:22:04.903Z,18.35
2022-10-06T18:24:32.536Z,21.08
2022-10-06T18:27:01.249Z,24.45
2022-10-06T18:29:31.774Z,22.10
2022-10-06T18:32:36.010Z,27.95
2022-10-06T18:37:36.395Z,26.60
2022-10-06T18:40:07.313Z,29.10
2022-10-06T18:42:37.902Z,21.98
2022-10-06T18:45:24.927Z,20.73
2022-10-06T18:48:11.192Z,20.00
2022-10-06T18:50:39.543Z,25.08
2022-10-06T18:53:07.164Z,22.95
2022-10-06T18:55:35.277Z,23.83
2022-10-06T18:58:04.732Z,22.42
2022-10-06T19:00:32.776Z,22.02
2022-10-06T19:03:00.722Z,17.70
2022-10-06T19:05:29.075Z,17.23
2022-10-06T19:07:56.795Z,20.73
2022-10-06T19:10:24.778Z,22.52
2022-10-06T19:12:52.857Z,21.75
2022-10-06T19:15:21.443Z,28.10
2022-10-06T19:17:49.936Z,27.58
2022-10-06T19:20:18.586Z,26.23
2022-10-06T19:22:48.010Z,26.33
2022-10-06T19:25:19.066Z,25.60
2022-10-06T19:27:48.412Z,25.17
2022-10-06T19:30:15.998Z,23.12
2022-10-06T19:32:43.957Z,23.33
2022-10-06T19:35:12.310Z,24.45
2022-10-06T19:37:42.961Z,24.30
2022-10-06T19:40:11.507Z,24.08
2022-10-06T19:42:48.367Z,19.12
2022-10-06T19:45:17.635Z,12.35
2022-10-06T19:47:46.715Z,13.62
2022-10-06T19:50:17.263Z,12.98
2022-10-06T19:52:45.302Z,14.80
2022-10-06T19:55:12.681Z,12.98
2022-10-06T19:57:41.799Z,13.85
2022-10-06T20:00:10.328Z,19.58
2022-10-06T20:02:42.936Z,21.08
2022-10-06T20:05:12.859Z,22.77
2022-10-06T20:07:41.387Z,19.00
2022-10-06T20:10:09.267Z,17.67
2022-10-06T20:12:38.381Z,22.83
2022-10-06T20:15:06.203Z,15.85
2022-10-06T20:17:35.314Z,17.33
2022-10-06T20:20:04.336Z,20.15
2022-10-06T20:22:31.854Z,14.23
2022-10-06T20:25:01.876Z,17.62
2022-10-06T20:27:30.046Z,14.45
2022-10-06T20:29:58.158Z,15.07
2022-10-06T20:32:25.734Z,12.07
2022-10-06T20:34:53.618Z,14.50
2022-10-06T20:37:21.213Z,10.40
2022-10-06T20:40:07.169Z,13.70
2022-10-06T20:42:34.820Z,13.00
2022-10-06T20:45:02.234Z,12.60
2022-10-06T20:47:29.869Z,12.80
2022-10-06T20:49:57.500Z,22.25
2022-10-06T20:52:24.931Z,13.30
2022-10-06T20:54:52.315Z,14.00
2022-10-06T20:57:20.037Z,15.00
2022-10-06T20:59:47.417Z,13.38
2022-10-06T21:02:14.919Z,13.80
2022-10-06T21:04:43.711Z,13.23
2022-10-06T21:07:11.462Z,17.75
2022-10-06T21:09:38.889Z,23.87
2022-10-06T21:12:06.716Z,19.10
2022-10-06T21:14:35.315Z,17.33
2022-10-06T21:17:02.757Z,16.05
2022-10-06T21:19:30.513Z,14.77
2022-10-06T21:21:58.008Z,15.30
2022-10-06T21:24:25.437Z,16.30
2022-10-06T21:26:53.141Z,14.05
2022-10-06T21:29:21.154Z,14.95
2022-10-06T21:31:48.609Z,16.65
2022-10-06T21:34:16.428Z,17.42
2022-10-06T21:36:44.500Z,17.25
2022-10-06T21:39:12.598Z,15.38
2022-10-06T21:41:41.054Z,16.85
2022-10-06T21:44:16.396Z,13.45
2022-10-06T21:46:54.908Z,14.73
2022-10-06T21:49:24.107Z,15.30
2022-10-06T21:51:53.672Z,13.50
2022-10-06T21:54:22.557Z,11.85
2022-10-06T21:56:50.608Z,11.07
2022-10-06T21:59:18.317Z,9.07
2022-10-06T22:01:47.041Z,10.60
2022-10-06T22:04:15.248Z,12.37
2022-10-06T22:06:44.149Z,14.18
2022-10-06T22:09:16.677Z,13.45
2022-10-06T22:11:44.726Z,12.43
2022-10-06T22:14:14.998Z,14.50
2022-10-06T22:16:42.617Z,16.48
2022-10-06T22:19:12.019Z,13.82
2022-10-06T22:21:44.491Z,16.73
2022-10-06T22:24:14.830Z,12.73
2022-10-06T22:26:43.392Z,15.55
2022-10-06T22:29:13.134Z,13.52
2022-10-06T22:31:43.002Z,13.98
2022-10-06T22:34:13.101Z,14.45
2022-10-06T22:36:40.983Z,10.95
2022-10-06T22:39:08.676Z,12.60
2022-10-06T22:41:36.488Z,11.25
2022-10-06T22:44:04.272Z,12.65
2022-10-06T22:46:35.592Z,14.13
2022-10-06T22:49:04.672Z,13.40
2022-10-06T22:51:32.664Z,12.15
2022-10-06T22:54:00.504Z,13.98
2022-10-06T22:56:29.691Z,14.40
2022-10-06T22:58:59.933Z,14.30
2022-10-06T23:01:29.092Z,14.57
2022-10-06T23:03:57.164Z,12.30
2022-10-06T23:06:25.233Z,11.77
2022-10-06T23:08:52.938Z,13.30
2022-10-06T23:11:21.458Z,13.32
2022-10-06T23:13:50.467Z,10.52
2022-10-06T23:16:19.621Z,14.15
2022-10-06T23:18:48.285Z,12.10
2022-10-06T23:21:21.650Z,10.85
2022-10-06T23:23:54.517Z,11.57
2022-10-06T23:26:23.070Z,12.75
2022-10-06T23:28:53.285Z,14.20
2022-10-06T23:31:20.967Z,10.50
2022-10-06T23:33:49.273Z,14.63
2022-10-06T23:36:18.174Z,13.27
2022-10-06T23:38:46.080Z,12.65
2022-10-06T23:41:13.786Z,11.50
2022-10-06T23:43:41.484Z,11.05
2022-10-06T23:46:09.227Z,11.32
2022-10-06T23:48:37.529Z,9.77
2022-10-06T23:51:07.985Z,10.88
2022-10-06T23:53:36.189Z,8.60
2022-10-06T23:56:07.313Z,9.05
2022-10-06T23:58:35.449Z,10.73
